Time;durP1;ratioP1;P1;durP2;ratioP2;P2;SDS_P1;SDS_P2;PMS_P1;PMS_P2;Temp;Humidity;BMP_temperature;BMP_pressure;BME280_temperature;BME280_humidity;BME280_pressure;Samples;Min_cycle;Max_cycle;Signal;HPM_P1;HPM_P2
2021/08/01 00:00:57;;;;;;;5.72;3.27;;;;;;;17.73;72.29;99581.47;2703426;87;21031;-59
2021/08/01 00:05:01;;;;;;;9.70;4.40;;;;;;;17.68;72.73;99576.65;2703379;87;21521;-59
2021/08/01 00:09:03;;;;;;;11.12;3.50;;;;;;;17.67;72.85;99580.36;2710430;87;21626;-59
2021/08/01 00:13:04;;;;;;;13.10;4.40;;;;;;;17.65;72.96;99586.45;2706734;88;21056;-59
2021/08/01 00:17:07;;;;;;;4.65;3.05;;;;;;;17.75;72.87;99584.30;2745623;86;21509;-59
2021/08/01 00:21:09;;;;;;;8.23;3.25;;;;;;;17.81;72.64;99577.33;2745974;86;21039;-59
2021/08/01 00:25:11;;;;;;;7.12;3.33;;;;;;;17.90;72.56;99569.97;2746301;86;21063;-59
2021/08/01 00:29:12;;;;;;;10.53;3.22;;;;;;;17.97;72.71;99569.52;2746336;86;21000;-59
2021/08/01 00:33:14;;;;;;;4.25;3.12;;;;;;;18.03;72.39;99564.73;2746557;86;21075;-59
2021/08/01 00:37:19;;;;;;;15.40;2.62;;;;;;;18.03;72.39;99573.33;2745918;86;21063;-60
2021/08/01 00:41:21;;;;;;;9.23;2.57;;;;;;;17.95;72.59;99575.61;2745028;86;21012;-59
2021/08/01 00:45:22;;;;;;;3.60;2.27;;;;;;;17.93;72.80;99570.40;2743562;86;21020;-59
2021/08/01 00:49:25;;;;;;;5.03;2.72;;;;;;;18.00;72.79;99563.74;2743848;86;21040;-59
2021/08/01 00:53:27;;;;;;;6.10;3.12;;;;;;;18.04;72.57;99559.67;2743503;86;21087;-59
2021/08/01 00:57:30;;;;;;;4.78;2.98;;;;;;;18.09;72.25;99557.75;2743568;86;21051;-59
2021/08/01 01:01:43;;;;;;;4.67;2.55;;;;;;;18.10;72.07;99541.42;2744062;86;21088;-59
2021/08/01 01:05:52;;;;;;;7.08;3.05;;;;;;;18.06;72.05;99544.16;2741624;86;21024;-59
2021/08/01 01:10:23;;;;;;;4.08;2.95;;;;;;;18.04;72.27;99535.45;2743034;85;21043;-60
2021/08/01 01:14:29;;;;;;;4.78;2.52;;;;;;;18.05;72.41;99537.64;2743621;85;21025;-59
2021/08/01 01:18:33;;;;;;;;;;;;;;;18.00;72.24;99532.80;2745994;86;21087;-59
2021/08/01 01:23:20;;;;;;;3.17;2.35;;;;;;;17.93;72.12;99530.58;2744041;86;20095;-59
2021/08/01 01:27:30;;;;;;;3.47;2.58;;;;;;;17.87;72.75;99521.41;2743558;86;21036;-59
2021/08/01 01:31:43;;;;;;;2.80;2.58;;;;;;;17.79;72.87;99524.23;2743547;86;21068;-60
2021/08/01 01:35:50;;;;;;;5.60;2.40;;;;;;;17.68;73.40;99522.86;2741603;86;21072;-59
2021/08/01 01:39:54;;;;;;;4.17;2.87;;;;;;;17.43;73.98;99530.47;2743184;86;21028;-59
2021/08/01 01:43:56;;;;;;;4.85;2.90;;;;;;;17.26;74.83;99534.19;2743661;86;21513;-60
2021/08/01 01:48:00;;;;;;;5.97;3.30;;;;;;;17.15;74.83;99540.56;2743738;86;21020;-59
2021/08/01 01:52:02;;;;;;;4.15;2.92;;;;;;;17.13;75.00;99551.52;2743488;86;21000;-59
2021/08/01 01:56:07;;;;;;;4.47;3.22;;;;;;;17.16;74.72;99547.11;2726667;86;21093;-59
2021/08/01 02:00:12;;;;;;;6.72;2.42;;;;;;;17.16;74.66;99547.11;2743561;86;21522;-59
2021/08/01 02:04:14;;;;;;;3.27;2.90;;;;;;;17.17;74.98;99542.05;2743710;86;21012;-59
2021/08/01 02:08:15;;;;;;;5.28;2.45;;;;;;;17.17;75.01;99538.52;2721233;86;21060;-60
2021/08/01 02:12:33;;;;;;;5.95;2.35;;;;;;;17.21;74.73;99538.49;2701129;88;21021;-60
2021/08/01 02:16:48;;;;;;;5.05;2.80;;;;;;;17.20;74.43;99541.67;2700488;87;21024;-59
2021/08/01 02:20:52;;;;;;;5.05;2.62;;;;;;;17.11;74.12;99534.75;2700608;88;21020;-59
2021/08/01 02:24:55;;;;;;;2.35;1.92;;;;;;;17.04;74.19;99540.53;2700954;88;20980;-59
2021/08/01 02:29:00;;;;;;;5.42;3.00;;;;;;;16.95;74.78;99531.20;2700856;87;21000;-60
2021/08/01 02:33:03;;;;;;;4.40;2.42;;;;;;;16.69;75.96;99535.69;2701730;87;21008;-59
2021/08/01 02:37:08;;;;;;;7.42;4.20;;;;;;;16.42;77.22;99536.13;2701644;87;21048;-59
2021/08/01 02:41:37;;;;;;;3.58;2.22;;;;;;;16.35;77.90;99537.03;2701108;87;21024;-59
2021/08/01 02:45:42;;;;;;;5.28;3.00;;;;;;;16.32;78.30;99538.25;2701067;87;21016;-59
2021/08/01 02:49:46;;;;;;;5.57;2.40;;;;;;;16.35;78.54;99535.69;2701563;87;21040;-59
2021/08/01 02:53:52;;;;;;;3.02;1.98;;;;;;;16.36;78.56;99539.55;2700938;88;21044;-59
2021/08/01 02:57:54;;;;;;;7.78;2.77;;;;;;;16.42;78.42;99529.41;2701362;87;21080;-59
2021/08/01 03:01:58;;;;;;;4.45;2.92;;;;;;;16.51;78.47;99529.34;2701391;88;21095;-59
2021/08/01 03:06:00;;;;;;;6.85;3.22;;;;;;;16.58;78.24;99534.30;2701579;88;20993;-59
2021/08/01 03:10:02;;;;;;;6.58;3.40;;;;;;;16.64;78.07;99544.30;2700830;86;21115;-59
2021/08/01 03:14:04;;;;;;;3.12;2.08;;;;;;;16.74;77.87;99544.02;2701411;87;21032;-60
2021/08/01 03:18:06;;;;;;;5.60;2.52;;;;;;;16.87;77.82;99546.58;2701327;88;21596;-59
2021/08/01 03:22:08;;;;;;;4.90;2.65;;;;;;;16.94;77.22;99542.97;2701667;88;20980;-59
2021/08/01 03:26:10;;;;;;;6.47;2.87;;;;;;;17.03;76.94;99538.38;2701767;87;21049;-59
2021/08/01 03:30:12;;;;;;;3.60;2.33;;;;;;;17.08;76.70;99535.09;2701641;88;21592;-59
2021/08/01 03:34:14;;;;;;;2.62;2.27;;;;;;;17.09;76.78;99526.86;2701611;88;21047;-59
2021/08/01 03:38:16;;;;;;;2.67;2.15;;;;;;;17.05;76.47;99527.41;2701737;87;21020;-59
2021/08/01 03:42:18;;;;;;;4.83;3.45;;;;;;;17.03;77.02;99530.80;2701531;87;21094;-59
2021/08/01 03:46:20;;;;;;;4.30;2.45;;;;;;;17.12;77.03;99537.77;2701855;88;20965;-59
2021/08/01 03:50:21;;;;;;;3.35;2.20;;;;;;;17.21;77.27;99543.34;2701546;87;20985;-59
2021/08/01 03:54:23;;;;;;;3.17;2.37;;;;;;;17.30;77.96;99540.56;2701563;88;21024;-59
2021/08/01 03:58:25;;;;;;;3.20;2.60;;;;;;;17.40;78.29;99534.36;2701632;88;21079;-60
2021/08/01 04:02:27;;;;;;;2.95;2.37;;;;;;;17.63;78.53;99518.08;2701680;88;20997;-60
2021/08/01 04:06:30;;;;;;;7.58;3.47;;;;;;;17.84;78.71;99525.30;2702007;88;21024;-59
2021/08/01 04:10:32;;;;;;;2.52;2.08;;;;;;;17.97;78.34;99535.88;2741057;86;21055;-59
2021/08/01 04:14:33;;;;;;;2.47;2.25;;;;;;;18.06;78.37;99524.50;2743542;86;21036;-59
2021/08/01 04:18:36;;;;;;;2.52;2.33;;;;;;;18.15;78.41;99521.17;2743479;86;21580;-59
2021/08/01 04:22:38;;;;;;;3.15;2.30;;;;;;;18.20;78.38;99522.25;2744058;86;21024;-59
2021/08/01 04:26:49;;;;;;;5.47;2.85;;;;;;;18.30;78.80;99525.11;2744205;85;21015;-59
2021/08/01 04:30:50;;;;;;;5.78;2.87;;;;;;;18.52;78.88;99529.94;2744409;86;20996;-59
2021/08/01 04:34:52;;;;;;;2.40;1.95;;;;;;;18.60;78.61;99534.34;2744155;86;21561;-59
2021/08/01 04:38:54;;;;;;;6.05;3.00;;;;;;;18.52;78.41;99530.76;2744190;86;21052;-59
2021/08/01 04:42:56;;;;;;;7.42;3.60;;;;;;;18.50;77.01;99522.58;2744211;86;21107;-59
2021/08/01 04:46:58;;;;;;;2.80;2.30;;;;;;;18.40;77.09;99519.70;2744067;86;21548;-59
2021/08/01 04:50:59;;;;;;;3.67;2.55;;;;;;;18.46;77.98;99508.66;2744236;86;21088;-59
2021/08/01 04:55:01;;;;;;;4.70;3.30;;;;;;;18.62;78.53;99498.62;2744265;86;21024;-59
2021/08/01 04:59:05;;;;;;;6.25;3.22;;;;;;;18.89;78.72;99495.56;2744247;86;21028;-59
2021/08/01 05:03:07;;;;;;;2.42;2.22;;;;;;;19.12;77.11;99491.75;2744372;86;21040;-59
2021/08/01 05:07:08;;;;;;;8.85;3.58;;;;;;;19.24;74.63;99490.11;2742618;85;21071;-59
2021/08/01 05:11:10;;;;;;;10.50;2.77;;;;;;;19.33;74.05;99479.98;2702640;87;21047;-59
2021/08/01 05:15:13;;;;;;;5.20;2.20;;;;;;;19.44;73.70;99471.81;2702488;87;21081;-59
2021/08/01 05:19:15;;;;;;;4.28;2.27;;;;;;;19.47;74.64;99472.77;2702751;87;21032;-59
2021/08/01 05:23:17;;;;;;;5.37;2.33;;;;;;;19.51;75.06;99480.77;2702792;87;21099;-59
2021/08/01 05:27:18;;;;;;;4.58;2.90;;;;;;;19.55;75.10;99479.31;2702658;88;20981;-59
2021/08/01 05:31:29;;;;;;;9.53;3.80;;;;;;;19.87;75.05;99472.51;3072223;77;22846;-60
2021/08/01 05:35:31;;;;;;;6.87;2.58;;;;;;;20.18;73.85;99465.16;3026902;78;20963;-60
2021/08/01 05:39:40;;;;;;;2.62;2.20;;;;;;;20.53;73.02;99468.11;3026609;78;20991;-60
2021/08/01 05:43:42;;;;;;;3.95;3.65;;;;;;;20.83;71.12;99467.11;3026747;78;20916;-60
2021/08/01 05:47:45;;;;;;;5.40;2.37;;;;;;;21.08;69.35;99469.62;3026438;78;21118;-60
2021/08/01 05:51:47;;;;;;;15.88;4.20;;;;;;;21.20;69.41;99462.47;3026637;78;21556;-60
2021/08/01 05:55:49;;;;;;;4.28;2.83;;;;;;;21.28;68.23;99451.92;3026861;78;20948;-60
2021/08/01 05:59:51;;;;;;;4.08;2.72;;;;;;;21.36;67.13;99454.39;3027035;78;20959;-60
2021/08/01 06:03:53;;;;;;;4.95;2.70;;;;;;;21.40;67.91;99453.41;3026960;78;20994;-60
2021/08/01 06:07:55;;;;;;;4.03;2.60;;;;;;;21.41;67.84;99453.72;3021900;77;21031;-60
2021/08/01 06:11:56;;;;;;;3.42;2.87;;;;;;;21.30;68.90;99449.02;3027130;78;20951;-60
2021/08/01 06:15:59;;;;;;;3.08;2.55;;;;;;;21.17;69.14;99453.44;3026492;78;20995;-60
2021/08/01 06:20:02;;;;;;;7.42;3.08;;;;;;;21.08;70.25;99457.45;3026950;78;21555;-60
2021/08/01 06:24:05;;;;;;;5.58;2.75;;;;;;;21.08;70.84;99470.97;3027113;78;20987;-60
2021/08/01 06:28:07;;;;;;;7.20;3.37;;;;;;;21.02;70.16;99478.06;3026817;78;21047;-60
2021/08/01 06:32:09;;;;;;;12.35;2.77;;;;;;;20.94;72.40;99476.42;3027090;78;20952;-60
2021/08/01 06:36:13;;;;;;;5.05;2.65;;;;;;;20.90;72.65;99491.42;3026818;78;20968;-60
2021/08/01 06:40:17;;;;;;;4.80;3.05;;;;;;;20.79;73.74;99496.94;3026645;78;20979;-60
2021/08/01 06:44:19;;;;;;;4.40;2.95;;;;;;;20.69;75.20;99498.73;3025400;78;20952;-59
2021/08/01 06:48:22;;;;;;;5.45;3.92;;;;;;;20.69;76.35;99499.23;3025648;78;20967;-59
2021/08/01 06:52:24;;;;;;;4.35;3.00;;;;;;;20.66;75.97;99502.36;3025228;78;21528;-59
2021/08/01 06:56:31;;;;;;;4.60;3.92;;;;;;;20.52;77.08;99511.02;3025281;78;20998;-59
2021/08/01 07:00:32;;;;;;;4.75;2.67;;;;;;;20.56;78.87;99514.95;3025441;78;20928;-59
2021/08/01 07:04:34;;;;;;;4.92;3.60;;;;;;;20.56;79.41;99510.91;3025478;78;21014;-60
2021/08/01 07:08:38;;;;;;;4.90;2.80;;;;;;;20.53;80.42;99511.33;3025462;78;21059;-60
2021/08/01 07:12:41;;;;;;;5.22;3.37;;;;;;;20.51;80.72;99514.77;2993878;78;20982;-60
2021/08/01 07:16:45;;;;;;;2.65;2.15;;;;;;;20.51;81.77;99517.47;3025834;78;20975;-60
2021/08/01 07:20:46;;;;;;;4.37;2.85;;;;;;;20.54;82.00;99518.39;3025679;78;20996;-60
2021/08/01 07:24:48;;;;;;;4.53;2.25;;;;;;;20.54;82.12;99511.64;3025859;78;20990;-60
2021/08/01 07:28:50;;;;;;;5.95;3.22;;;;;;;20.57;82.24;99507.16;3025692;78;21031;-60
2021/08/01 07:32:51;;;;;;;3.35;3.05;;;;;;;20.56;81.11;99497.39;3025456;78;20980;-60
2021/08/01 07:36:57;;;;;;;4.50;2.65;;;;;;;20.50;81.75;99488.80;3025150;78;21030;-60
2021/08/01 07:40:58;;;;;;;;;;;;;;;20.46;81.87;99483.51;3019932;78;21487;-60
2021/08/01 07:45:04;;;;;;;7.85;2.72;;;;;;;20.47;81.63;99479.77;2965659;80;20116;-60
2021/08/01 07:49:06;;;;;;;8.53;3.85;;;;;;;20.41;80.51;99480.89;2965450;80;21052;-60
2021/08/01 07:53:08;;;;;;;6.00;3.30;;;;;;;20.39;81.27;99472.17;2965514;80;20993;-60
2021/08/01 07:57:31;;;;;;;3.05;2.72;;;;;;;20.39;81.51;99455.97;2965703;80;20949;-60
2021/08/01 08:01:32;;;;;;;8.98;4.05;;;;;;;20.57;81.74;99431.52;2965445;80;20977;-60
2021/08/01 08:05:34;;;;;;;4.87;2.70;;;;;;;20.82;80.01;99417.31;2966608;77;20984;-60
2021/08/01 08:10:10;;;;;;;7.62;3.15;;;;;;;21.05;79.52;99415.44;3012358;77;21006;-60
2021/08/01 08:14:12;;;;;;;4.97;3.10;;;;;;;21.18;79.39;99412.38;3012282;79;21039;-60
2021/08/01 08:18:51;;;;;;;4.53;3.12;;;;;;;21.30;78.48;99422.78;3012737;79;20955;-60
2021/08/01 08:22:52;;;;;;;3.67;2.58;;;;;;;21.24;77.18;99431.27;3012245;79;21457;-60
2021/08/01 08:27:31;;;;;;;3.37;3.00;;;;;;;21.22;76.47;99433.36;3012696;79;20963;-60
2021/08/01 08:31:33;;;;;;;7.50;3.90;;;;;;;21.27;76.46;99439.45;3012063;79;20944;-60
2021/08/01 08:35:34;;;;;;;3.95;2.72;;;;;;;21.26;76.85;99453.51;2997399;78;20987;-60
2021/08/01 08:40:14;;;;;;;3.85;2.77;;;;;;;21.08;77.95;99452.05;2988389;78;21046;-60
2021/08/01 08:44:17;;;;;;;3.47;2.65;;;;;;;20.98;79.33;99452.50;3020917;78;21002;-60
2021/08/01 08:48:54;;;;;;;9.70;3.60;;;;;;;20.89;79.80;99450.56;2997450;78;20985;-60
2021/08/01 08:53:05;;;;;;;10.25;4.90;;;;;;;20.80;81.18;99457.23;3025169;78;20983;-60
2021/08/01 08:57:38;;;;;;;4.95;3.52;;;;;;;20.75;81.56;99465.13;3025080;78;21535;-60
2021/08/01 09:01:40;;;;;;;7.80;3.62;;;;;;;20.71;82.21;99473.36;3025164;78;21507;-61
2021/08/01 09:05:42;;;;;;;6.55;4.12;;;;;;;20.69;83.12;99477.11;3024861;78;20995;-60
2021/08/01 09:09:44;;;;;;;6.75;3.62;;;;;;;20.73;83.16;99477.49;3023555;78;21023;-60
2021/08/01 09:13:53;;;;;;;4.37;3.50;;;;;;;20.82;83.30;99483.53;3023920;78;20999;-61
2021/08/01 09:18:00;;;;;;;5.70;3.67;;;;;;;20.88;83.36;99493.51;3024038;78;20947;-61
2021/08/01 09:22:22;;;;;;;5.78;3.52;;;;;;;20.89;82.91;99506.48;3024024;78;21015;-60
2021/08/01 09:26:47;;;;;;;6.58;3.33;;;;;;;20.85;82.54;99506.10;3023730;78;21001;-60
2021/08/01 09:30:58;;;;;;;5.23;3.70;;;;;;;20.83;82.10;99498.70;3023951;78;20955;-60
2021/08/01 09:35:01;;;;;;;6.83;4.03;;;;;;;20.82;82.42;99497.04;3023489;78;20990;-60
2021/08/01 09:39:08;;;;;;;5.55;3.95;;;;;;;20.80;83.60;99493.72;3023860;78;21077;-60
2021/08/01 09:43:13;;;;;;;4.42;3.98;;;;;;;20.77;83.70;99486.86;3024161;78;20999;-61
2021/08/01 09:47:24;;;;;;;5.65;2.92;;;;;;;20.83;84.51;99483.33;3024479;78;21050;-61
2021/08/01 09:51:26;;;;;;;3.10;2.75;;;;;;;20.86;84.51;99485.29;3022796;78;21508;-61
2021/08/01 09:55:31;;;;;;;5.78;3.90;;;;;;;20.94;84.09;99479.12;3010764;77;20959;-61
2021/08/01 09:59:35;;;;;;;5.83;3.53;;;;;;;20.92;80.77;99485.27;3002420;78;20999;-61
2021/08/01 10:03:43;;;;;;;8.18;4.40;;;;;;;20.74;79.85;99485.09;2995295;78;20980;-61
2021/08/01 10:07:48;;;;;;;5.72;3.95;;;;;;;20.58;80.14;99476.40;2992559;77;21513;-60
2021/08/01 10:11:53;;;;;;;5.65;3.37;;;;;;;20.47;79.91;99494.62;2954993;80;20990;-60
2021/08/01 10:15:57;;;;;;;5.12;3.47;;;;;;;20.37;81.27;99501.27;2954742;80;21046;-61
2021/08/01 10:20:01;;;;;;;5.47;3.62;;;;;;;20.39;80.81;99472.17;2924436;80;20984;-60
2021/08/01 10:24:06;;;;;;;4.58;3.87;;;;;;;20.55;80.46;99466.87;2955188;80;20995;-60
2021/08/01 10:28:18;;;;;;;4.23;2.97;;;;;;;20.68;80.45;99497.06;2988847;78;21026;-60
2021/08/01 10:32:22;;;;;;;3.87;3.20;;;;;;;20.63;79.90;99501.44;3010450;78;21217;-60
2021/08/01 10:36:31;;;;;;;4.60;2.47;;;;;;;20.52;79.81;99507.78;2976934;78;21011;-60
2021/08/01 10:40:36;;;;;;;4.97;3.45;;;;;;;20.49;79.32;99500.64;3013880;78;20979;-61
2021/08/01 10:44:38;;;;;;;4.47;2.83;;;;;;;20.47;80.17;99486.52;3024461;78;20959;-61
2021/08/01 10:48:42;;;;;;;3.05;2.80;;;;;;;20.64;80.03;99491.78;3023878;78;21019;-61
2021/08/01 10:52:44;;;;;;;4.20;3.80;;;;;;;20.60;79.73;99499.98;3023801;78;21078;-61
2021/08/01 10:57:08;;;;;;;7.60;2.90;;;;;;;20.46;79.37;99504.58;3013931;78;21018;-61
2021/08/01 11:01:11;;;;;;;4.62;2.77;;;;;;;20.38;80.42;99502.92;3005132;78;21484;-61
2021/08/01 11:05:35;;;;;;;4.12;2.62;;;;;;;20.37;80.72;99494.52;3000710;78;21031;-61
2021/08/01 11:09:37;;;;;;;4.90;3.08;;;;;;;20.32;81.31;99497.02;2964483;78;21027;-61
2021/08/01 11:13:50;;;;;;;8.93;5.90;;;;;;;20.29;81.99;99492.05;3002554;78;21416;-61
2021/08/01 11:18:07;;;;;;;4.67;3.62;;;;;;;20.49;82.32;99477.69;3005293;78;21011;-62
2021/08/01 11:22:46;;;;;;;4.42;3.55;;;;;;;20.67;82.09;99468.89;3010478;78;20951;-62
2021/08/01 11:27:10;;;;;;;5.05;3.65;;;;;;;20.68;80.85;99475.45;3001874;78;21034;-62
2021/08/01 11:31:23;;;;;;;3.37;2.98;;;;;;;20.58;81.58;99485.04;2999038;78;21050;-62
2021/08/01 11:35:25;;;;;;;5.03;3.83;;;;;;;20.51;81.84;99478.30;3010108;78;20955;-62
2021/08/01 11:39:33;;;;;;;8.80;5.00;;;;;;;20.47;83.17;99464.91;3019204;77;21018;-62
2021/08/01 11:43:36;;;;;;;4.25;3.85;;;;;;;20.38;83.28;99465.12;3019347;78;20959;-62
2021/08/01 11:47:46;;;;;;;7.08;4.45;;;;;;;20.26;83.37;99461.41;2991956;78;21077;-62
2021/08/01 11:51:48;;;;;;;5.45;3.80;;;;;;;20.13;84.79;99451.44;2969258;80;21015;-62
2021/08/01 11:55:50;;;;;;;4.15;3.08;;;;;;;20.07;85.10;99449.58;2969813;80;20959;-62
2021/08/01 11:59:53;;;;;;;6.00;3.85;;;;;;;19.87;84.43;99449.58;2969469;80;21001;-61
2021/08/01 12:03:55;;;;;;;3.90;3.40;;;;;;;19.67;85.11;99449.86;2969564;80;21002;-61
2021/08/01 12:07:57;;;;;;;5.55;4.65;;;;;;;19.62;85.90;99455.05;2978125;78;21063;-60
2021/08/01 12:12:02;;;;;;;6.92;4.87;;;;;;;19.57;86.95;99464.79;2990222;78;20983;-61
2021/08/01 12:16:23;;;;;;;4.28;3.60;;;;;;;19.60;87.14;99463.88;3014862;78;21058;-61
2021/08/01 12:20:33;;;;;;;7.05;4.28;;;;;;;19.62;87.18;99450.16;3012856;78;21061;-61
2021/08/01 12:24:41;;;;;;;7.62;4.78;;;;;;;19.59;88.06;99455.97;2969050;80;20983;-61
2021/08/01 12:28:43;;;;;;;10.05;4.62;;;;;;;19.57;88.76;99456.20;2994250;79;21054;-60
2021/08/01 12:32:48;;;;;;;5.85;4.95;;;;;;;19.57;88.88;99444.56;3020401;78;20991;-61
2021/08/01 12:36:50;;;;;;;4.85;4.17;;;;;;;19.52;88.63;99444.66;3015939;78;21019;-61
2021/08/01 12:40:52;;;;;;;7.53;4.20;;;;;;;19.50;88.90;99441.34;3022059;78;20986;-60
2021/08/01 12:44:58;;;;;;;8.85;4.90;;;;;;;19.48;88.12;99436.67;3015171;78;21575;-60
2021/08/01 12:49:02;;;;;;;6.33;4.97;;;;;;;19.53;89.25;99436.88;3005662;79;20983;-60
2021/08/01 12:53:04;;;;;;;5.10;3.90;;;;;;;19.60;88.92;99435.55;3009646;78;21472;-60
2021/08/01 12:57:10;;;;;;;5.05;4.28;;;;;;;19.60;89.11;99448.19;3022105;78;20995;-60
2021/08/01 13:01:12;;;;;;;8.55;3.70;;;;;;;19.54;88.75;99443.09;3021387;78;21011;-60
2021/08/01 13:05:23;;;;;;;4.72;3.55;;;;;;;19.45;87.85;99449.73;3013481;78;20987;-60
2021/08/01 13:09:31;;;;;;;6.30;3.87;;;;;;;19.36;88.07;99455.83;3014517;77;21064;-61
2021/08/01 13:13:33;;;;;;;3.20;2.92;;;;;;;19.26;88.63;99436.84;3013680;78;21007;-61
2021/08/01 13:17:44;;;;;;;4.83;3.05;;;;;;;19.24;88.17;99436.73;3020152;78;21085;-62
2021/08/01 13:22:20;;;;;;;6.03;3.65;;;;;;;19.14;88.16;99430.37;3019813;78;21026;-61
2021/08/01 13:26:32;;;;;;;5.72;4.22;;;;;;;19.09;88.40;99441.76;3018749;78;20936;-62
2021/08/01 13:30:33;;;;;;;6.35;4.28;;;;;;;19.10;88.88;99449.34;3012638;78;21072;-61
2021/08/01 13:34:39;;;;;;;6.42;4.75;;;;;;;19.08;89.25;99454.92;3018386;78;20989;-64
2021/08/01 13:38:41;;;;;;;8.70;4.67;;;;;;;19.09;89.67;99453.88;3022688;78;20995;-63
2021/08/01 13:42:59;;;;;;;8.03;4.80;;;;;;;19.12;90.01;99449.97;3022427;78;20994;-64
2021/08/01 13:47:25;;;;;;;6.95;4.35;;;;;;;19.10;90.81;99445.30;3018944;78;20954;-65
2021/08/01 13:51:27;;;;;;;5.67;4.00;;;;;;;19.13;89.77;99459.71;3019352;78;20959;-64
2021/08/01 13:55:29;;;;;;;5.87;3.92;;;;;;;19.12;90.47;99456.70;3023803;78;21472;-63
2021/08/01 13:59:38;;;;;;;4.58;3.47;;;;;;;19.18;90.89;99446.45;3020639;78;20994;-62
2021/08/01 14:03:44;;;;;;;9.18;4.33;;;;;;;19.24;90.13;99456.41;3022520;78;21008;-63
2021/08/01 14:08:40;;;;;;;3.80;3.45;;;;;;;19.25;90.49;99448.63;3016491;78;21058;-64
2021/08/01 14:12:42;;;;;;;3.83;3.42;;;;;;;19.31;90.74;99447.53;3022169;78;20995;-63
2021/08/01 14:16:46;;;;;;;5.40;3.60;;;;;;;19.40;90.26;99459.77;3020022;78;21017;-63
2021/08/01 14:20:48;;;;;;;3.85;3.10;;;;;;;19.43;90.35;99459.36;2993184;78;21384;-62
2021/08/01 14:24:50;;;;;;;6.12;4.72;;;;;;;19.45;90.04;99459.98;3033161;78;21006;-63
2021/08/01 14:28:54;;;;;;;6.72;3.92;;;;;;;19.42;90.29;99467.14;3024775;77;20963;-63
2021/08/01 14:33:01;;;;;;;5.05;4.00;;;;;;;19.40;90.33;99457.08;3009494;78;21023;-63
2021/08/01 14:37:13;;;;;;;4.20;3.90;;;;;;;19.41;90.08;99464.12;3003637;78;21000;-63
2021/08/01 14:41:24;;;;;;;3.80;3.37;;;;;;;19.44;90.11;99455.62;3007696;78;21019;-63
2021/08/01 14:45:26;;;;;;;5.45;3.33;;;;;;;19.52;89.99;99466.24;3004270;78;20963;-63
2021/08/01 14:49:41;;;;;;;5.85;4.22;;;;;;;19.60;89.46;99465.72;2969225;80;21507;-63
2021/08/01 14:53:36;;;;;;;5.45;3.52;;;;;;;19.62;89.10;99462.30;2967401;80;21623;-63
2021/08/01 14:58:15;;;;;;;5.72;3.58;;;;;;;19.53;89.05;99461.66;2968934;80;20974;-62
2021/08/01 15:03:14;;;;;;;4.90;3.12;;;;;;;19.43;89.90;99463.41;2993677;78;20983;-63
2021/08/01 15:12:56;;;;;;;6.72;3.70;;;;;;;19.20;91.59;99466.48;3000885;78;21540;-62
2021/08/01 15:17:36;;;;;;;4.53;3.37;;;;;;;19.06;92.18;99459.69;3015511;78;20959;-63
2021/08/01 15:21:55;;;;;;;4.92;3.42;;;;;;;19.07;91.94;99455.95;2983295;78;21046;-62
2021/08/01 15:26:01;;;;;;;5.60;3.42;;;;;;;19.06;91.19;99454.80;2969882;80;21304;-61
2021/08/01 15:30:12;;;;;;;7.37;4.70;;;;;;;19.01;92.29;99451.88;2969783;80;21014;-63
2021/08/01 15:34:16;;;;;;;6.60;4.72;;;;;;;19.01;93.08;99466.70;2992323;78;21463;-63
2021/08/01 15:38:54;;;;;;;12.30;4.47;;;;;;;19.05;91.77;99460.72;3007357;78;21046;-63
2021/08/01 15:43:00;;;;;;;6.15;4.40;;;;;;;18.96;92.49;99457.84;2988955;78;20940;-62
2021/08/01 15:47:34;;;;;;;6.53;4.90;;;;;;;18.91;93.42;99454.42;2961385;78;21018;-62
2021/08/01 15:51:42;;;;;;;9.10;4.90;;;;;;;18.93;94.09;99445.62;2992977;77;21050;-62
2021/08/01 15:55:59;;;;;;;9.28;5.20;;;;;;;19.00;94.63;99430.02;3010508;78;20975;-63
2021/08/01 16:00:05;;;;;;;6.92;4.72;;;;;;;19.15;94.30;99433.88;2981526;78;20996;-63
2021/08/01 16:04:42;;;;;;;6.17;5.58;;;;;;;19.26;92.98;99430.11;3002451;78;20987;-61
2021/08/01 16:09:03;;;;;;;6.33;3.70;;;;;;;19.35;92.54;99420.47;2989169;78;21633;-63
2021/08/01 16:13:11;;;;;;;5.53;4.37;;;;;;;19.28;91.87;99413.71;2990274;78;21058;-64
2021/08/01 16:17:35;;;;;;;6.12;4.58;;;;;;;19.30;92.51;99398.69;3003602;78;21022;-64
2021/08/01 16:21:43;;;;;;;5.15;4.40;;;;;;;19.32;92.73;99388.52;2998829;78;20972;-63
2021/08/01 16:25:52;;;;;;;10.35;6.25;;;;;;;19.41;92.80;99391.32;3001127;77;20972;-63
2021/08/01 16:29:54;;;;;;;7.10;5.40;;;;;;;19.45;93.32;99392.56;2981421;77;21015;-65
2021/08/01 16:33:56;;;;;;;5.12;4.08;;;;;;;19.48;91.58;99387.28;2995846;77;21015;-63
2021/08/01 16:38:03;;;;;;;6.90;3.58;;;;;;;19.48;91.11;99393.53;2990863;79;20960;-63
2021/08/01 16:42:40;;;;;;;5.58;3.92;;;;;;;19.55;90.92;99390.30;3005088;78;21015;-65
2021/08/01 16:46:55;;;;;;;6.87;5.12;;;;;;;19.55;89.89;99406.98;2966239;79;21045;-65
2021/08/01 16:51:19;;;;;;;15.00;5.07;;;;;;;19.59;90.67;99402.87;3011047;79;21003;-63
2021/08/01 16:55:29;;;;;;;8.85;4.70;;;;;;;19.72;90.48;99409.28;3005003;79;21057;-70
2021/08/01 16:59:37;;;;;;;4.62;3.47;;;;;;;19.81;89.05;99402.12;2986707;78;20998;-69
2021/08/01 17:03:54;;;;;;;4.03;3.67;;;;;;;19.78;88.78;99397.15;2877386;82;20966;-63
2021/08/01 17:08:11;;;;;;;5.12;3.83;;;;;;;19.70;88.02;99402.23;2876429;82;21040;-65
2021/08/01 17:12:15;;;;;;;3.83;3.35;;;;;;;19.63;88.14;99405.96;2885513;82;21055;-65
2021/08/01 17:16:18;;;;;;;6.67;3.58;;;;;;;19.56;88.27;99424.86;2894489;81;21056;-66
2021/08/01 17:20:20;;;;;;;8.33;3.25;;;;;;;19.49;88.56;99421.31;2919309;81;21014;-66
2021/08/01 17:24:23;;;;;;;5.05;3.33;;;;;;;19.44;89.30;99427.31;2920607;81;21043;-66
2021/08/01 17:28:24;;;;;;;2.40;2.00;;;;;;;19.41;88.29;99423.68;2878951;82;21026;-65
2021/08/01 17:32:43;;;;;;;3.37;2.50;;;;;;;19.35;85.85;99424.51;2927106;81;21035;-65
2021/08/01 17:36:48;;;;;;;2.60;2.02;;;;;;;19.30;86.71;99416.21;2927095;81;20975;-67
2021/08/01 17:40:50;;;;;;;2.47;2.17;;;;;;;19.26;86.40;99425.22;2927233;80;21011;-66
2021/08/01 17:44:55;;;;;;;5.92;3.12;;;;;;;19.26;86.74;99417.13;2927028;80;20983;-65
2021/08/01 17:49:00;;;;;;;2.60;2.08;;;;;;;19.29;87.46;99419.41;2919247;80;21040;-66
2021/08/01 17:53:04;;;;;;;6.65;2.70;;;;;;;19.35;87.32;99419.93;2917074;81;20987;-65
2021/08/01 17:57:12;;;;;;;3.77;3.30;;;;;;;19.37;88.14;99426.48;2905505;81;21074;-65
2021/08/01 18:01:13;;;;;;;7.78;4.53;;;;;;;19.36;89.19;99432.41;2908867;81;20960;-67
2021/08/01 18:05:17;;;;;;;8.93;3.58;;;;;;;19.39;89.66;99429.80;2911538;81;21023;-64
2021/08/01 18:09:24;;;;;;;11.50;4.35;;;;;;;19.39;89.98;99425.25;2901680;81;21063;-65
2021/08/01 18:13:30;;;;;;;3.30;2.75;;;;;;;19.40;89.60;99427.41;2896740;81;20972;-66
2021/08/01 18:17:34;;;;;;;;;;;;;;;19.41;88.84;99423.18;2907294;81;21038;-63
2021/08/01 18:21:37;;;;;;;3.95;2.95;;;;;;;19.43;88.94;99422.95;2917402;81;20138;-69
2021/08/01 18:25:39;;;;;;;6.47;3.40;;;;;;;19.39;89.09;99428.45;2914986;81;21549;-63
2021/08/01 18:29:43;;;;;;;4.20;3.42;;;;;;;19.33;89.69;99423.89;2901423;82;21007;-64
2021/08/01 18:33:47;;;;;;;9.17;3.70;;;;;;;19.43;90.40;99437.78;2910259;81;21025;-65
2021/08/01 18:37:52;;;;;;;5.55;2.90;;;;;;;19.58;89.93;99432.23;2917995;80;21023;-63
2021/08/01 18:42:12;;;;;;;8.05;3.90;;;;;;;19.66;89.49;99425.80;2891838;82;20968;-69
2021/08/01 18:46:14;;;;;;;4.10;3.30;;;;;;;19.74;88.93;99426.09;2854206;83;21042;-64
2021/08/01 18:50:17;;;;;;;7.65;3.67;;;;;;;19.79;88.44;99421.73;2888145;82;20968;-64
2021/08/01 18:54:19;;;;;;;8.15;3.55;;;;;;;19.82;87.66;99426.72;2903941;82;21023;-65
2021/08/01 18:58:22;;;;;;;7.97;3.92;;;;;;;19.80;87.41;99431.49;2909193;82;20972;-63
2021/08/01 19:02:26;;;;;;;11.95;4.15;;;;;;;19.75;86.88;99432.64;2904106;82;21019;-64
2021/08/01 19:06:29;;;;;;;15.08;5.58;;;;;;;19.74;87.06;99428.28;2892123;82;21070;-66
2021/08/01 19:10:33;;;;;;;6.80;4.20;;;;;;;19.67;85.83;99420.72;2880373;82;21066;-65
2021/08/01 19:14:34;;;;;;;10.32;5.47;;;;;;;19.58;85.77;99429.53;2925035;80;21019;-66
2021/08/01 19:19:08;;;;;;;9.08;4.70;;;;;;;19.53;85.37;99436.03;2891960;82;21039;-67
2021/08/01 19:23:22;;;;;;;17.73;5.25;;;;;;;19.43;85.10;99436.44;2892880;82;21515;-65
2021/08/01 19:27:27;;;;;;;15.43;4.42;;;;;;;19.36;85.18;99436.95;2895841;82;21420;-64
2021/08/01 19:31:47;;;;;;;9.25;4.70;;;;;;;19.29;84.76;99433.42;2865670;82;21000;-67